createdAt,value
2019-05-06T00:00:13.934Z,100409.89
2019-05-06T00:00:56.630Z,100415.02
2019-05-06T00:01:28.057Z,100412.86
2019-05-06T00:02:04.531Z,100412.86
2019-05-06T00:02:40.133Z,100409.97
2019-05-06T00:03:15.887Z,100409.97
2019-05-06T00:03:51.633Z,100413.52
2019-05-06T00:04:27.280Z,100413.52
2019-05-06T00:05:04.120Z,100408.41
2019-05-06T00:05:39.642Z,100410.16
2019-05-06T00:06:15.455Z,100417.80
2019-05-06T00:06:50.889Z,100409.72
2019-05-06T00:07:26.424Z,100413.12
2019-05-06T00:08:04.023Z,100403.10
2019-05-06T00:08:39.805Z,100403.10
2019-05-06T00:09:16.177Z,100414.81
2019-05-06T00:09:53.905Z,100410.72
2019-05-06T00:10:31.456Z,100418.00
2019-05-06T00:11:07.272Z,100412.30
2019-05-06T00:11:44.711Z,100416.27
2019-05-06T00:12:20.327Z,100415.96
2019-05-06T00:12:56.419Z,100411.86
2019-05-06T00:13:34.209Z,100419.45
2019-05-06T00:14:09.766Z,100414.81
2019-05-06T00:14:45.706Z,100421.72
2019-05-06T00:15:21.166Z,100420.09
2019-05-06T00:15:57.272Z,100421.29
2019-05-06T00:16:34.738Z,100426.29
2019-05-06T00:17:10.361Z,100412.68
2019-05-06T00:17:46.275Z,100420.85
2019-05-06T00:18:22.019Z,100414.45
2019-05-06T00:18:57.583Z,100416.24
2019-05-06T00:19:34.132Z,100423.03
2019-05-06T00:20:10.044Z,100420.06
2019-05-06T00:20:46.056Z,100421.46
2019-05-06T00:21:24.366Z,100413.22
2019-05-06T00:21:59.443Z,100416.93
2019-05-06T00:22:34.905Z,100416.93
2019-05-06T00:23:25.037Z,100415.71
2019-05-06T00:24:00.775Z,100423.84
2019-05-06T00:24:44.008Z,100423.84
2019-05-06T00:25:26.085Z,100419.55
2019-05-06T00:26:14.859Z,100418.55
2019-05-06T00:26:57.613Z,100422.44
2019-05-06T00:27:56.267Z,100412.23
2019-05-06T00:28:40.723Z,100417.80
2019-05-06T00:29:18.476Z,100413.97
2019-05-06T00:29:55.039Z,100422.08
2019-05-06T00:30:30.743Z,100418.59
2019-05-06T00:31:12.958Z,100416.44
2019-05-06T00:31:44.821Z,100421.13
2019-05-06T00:32:20.258Z,100420.79
2019-05-06T00:32:55.793Z,100423.28
2019-05-06T00:33:33.991Z,100421.13
2019-05-06T00:34:08.776Z,100411.81
2019-05-06T00:34:44.588Z,100419.30
2019-05-06T00:35:20.043Z,100419.30
2019-05-06T00:35:55.704Z,100413.75
2019-05-06T00:36:31.498Z,100413.75
2019-05-06T00:37:06.930Z,100423.53
2019-05-06T00:37:44.184Z,100423.80
2019-05-06T00:38:19.706Z,100422.77
2019-05-06T00:38:58.022Z,100424.91
2019-05-06T00:39:53.875Z,100425.27
2019-05-06T00:40:34.019Z,100422.63
2019-05-06T00:41:14.422Z,100424.23
2019-05-06T00:41:56.237Z,100424.23
2019-05-06T00:42:34.623Z,100422.97
2019-05-06T00:43:11.234Z,100421.66
2019-05-06T00:43:46.672Z,100421.66
2019-05-06T00:44:23.907Z,100421.30
2019-05-06T00:44:59.692Z,100427.24
2019-05-06T00:45:35.196Z,100429.72
2019-05-06T00:46:10.805Z,100430.15
2019-05-06T00:46:46.270Z,100428.41
2019-05-06T00:47:22.035Z,100428.41
2019-05-06T00:47:59.268Z,100430.10
2019-05-06T00:48:35.060Z,100430.80
2019-05-06T00:49:10.597Z,100428.91
2019-05-06T00:49:46.336Z,100429.93
2019-05-06T00:50:23.510Z,100432.01
2019-05-06T00:50:59.490Z,100432.01
2019-05-06T00:51:35.643Z,100423.65
2019-05-06T00:52:11.200Z,100430.88
2019-05-06T00:52:46.839Z,100431.41
2019-05-06T00:53:23.991Z,100431.41
2019-05-06T00:54:04.793Z,100424.23
2019-05-06T00:54:40.804Z,100436.70
2019-05-06T00:55:16.241Z,100436.70
2019-05-06T00:55:53.668Z,100430.30
2019-05-06T00:56:29.028Z,100431.97
2019-05-06T00:57:04.476Z,100428.26
2019-05-06T00:57:46.385Z,100428.26
2019-05-06T00:58:23.806Z,100427.44
2019-05-06T00:58:59.681Z,100430.86
2019-05-06T00:59:35.133Z,100432.07
2019-05-06T01:00:10.919Z,100431.22
2019-05-06T01:00:46.673Z,100429.50
2019-05-06T01:01:26.915Z,100431.68
2019-05-06T01:01:59.998Z,100430.86
2019-05-06T01:02:35.817Z,100430.88
2019-05-06T01:03:11.606Z,100430.98
2019-05-06T01:03:47.324Z,100429.23
2019-05-06T01:04:24.490Z,100430.30
2019-05-06T01:05:00.374Z,100430.66
2019-05-06T01:05:35.837Z,100433.70
2019-05-06T01:06:11.425Z,100424.73
2019-05-06T01:06:47.701Z,100431.14
2019-05-06T01:07:23.743Z,100431.14
2019-05-06T01:08:00.188Z,100426.95
2019-05-06T01:08:35.712Z,100426.95
2019-05-06T01:09:14.712Z,100425.56
2019-05-06T01:09:50.385Z,100430.27
2019-05-06T01:10:26.065Z,100420.55
2019-05-06T01:11:03.883Z,100432.43
2019-05-06T01:11:39.281Z,100418.39
2019-05-06T01:12:14.716Z,100418.39
2019-05-06T01:13:08.332Z,100428.11
2019-05-06T01:14:06.179Z,100429.81
2019-05-06T01:14:46.231Z,100430.10
2019-05-06T01:15:23.839Z,100430.10
2019-05-06T01:15:59.402Z,100429.79
2019-05-06T01:16:35.307Z,100431.53
2019-05-06T01:17:13.312Z,100431.53
2019-05-06T01:17:48.403Z,100421.39
2019-05-06T01:18:24.494Z,100431.00
2019-05-06T01:19:00.582Z,100428.97
2019-05-06T01:19:36.006Z,100427.78
2019-05-06T01:20:13.859Z,100424.13
2019-05-06T01:20:51.185Z,100425.55
2019-05-06T01:21:26.639Z,100425.56
2019-05-06T01:22:04.548Z,100425.12
2019-05-06T01:22:39.683Z,100431.14
2019-05-06T01:23:15.208Z,100423.45
2019-05-06T01:23:51.054Z,100423.45
2019-05-06T01:24:26.815Z,100425.66
2019-05-06T01:25:03.936Z,100434.20
2019-05-06T01:25:39.815Z,100423.55
2019-05-06T01:26:17.231Z,100423.55
2019-05-06T01:26:53.618Z,100434.09
2019-05-06T01:27:29.358Z,100429.40
2019-05-06T01:28:04.806Z,100426.78
2019-05-06T01:28:40.239Z,100427.27
2019-05-06T01:29:15.700Z,100426.44
2019-05-06T01:29:51.165Z,100422.22
2019-05-06T01:30:26.938Z,100430.73
2019-05-06T01:31:04.258Z,100427.39
2019-05-06T01:31:43.215Z,100431.58
2019-05-06T01:32:17.136Z,100433.80
2019-05-06T01:32:54.357Z,100437.30
2019-05-06T01:33:30.720Z,100437.30
2019-05-06T01:34:06.646Z,100437.11
2019-05-06T01:34:44.522Z,100431.11
2019-05-06T01:35:19.223Z,100431.11
2019-05-06T01:35:54.677Z,100426.78
2019-05-06T01:36:30.179Z,100435.52
2019-05-06T01:37:05.637Z,100436.02
2019-05-06T01:37:44.017Z,100436.68
2019-05-06T01:38:27.308Z,100428.23
2019-05-06T01:39:13.870Z,100431.25
2019-05-06T01:40:00.312Z,100431.25
2019-05-06T01:40:43.964Z,100425.85
2019-05-06T01:41:44.761Z,100421.56
2019-05-06T01:42:51.552Z,100421.56
2019-05-06T01:43:30.610Z,100427.80
2019-05-06T01:44:06.164Z,100428.36
2019-05-06T01:44:41.603Z,100428.36
2019-05-06T01:45:17.701Z,100428.03
2019-05-06T01:45:53.748Z,100428.45
2019-05-06T01:46:29.330Z,100437.67
2019-05-06T01:47:05.094Z,100428.82
2019-05-06T01:47:41.191Z,100428.82
2019-05-06T01:48:19.097Z,100431.10
2019-05-06T01:48:54.530Z,100436.92
2019-05-06T01:49:30.055Z,100440.56
2019-05-06T01:50:06.507Z,100440.56
2019-05-06T01:50:41.967Z,100432.53
2019-05-06T01:51:18.912Z,100435.25
2019-05-06T01:51:55.089Z,100435.25
2019-05-06T01:52:30.950Z,100433.52
2019-05-06T01:53:06.420Z,100433.13
2019-05-06T01:53:41.858Z,100431.87
2019-05-06T01:54:17.946Z,100430.66
2019-05-06T01:54:54.307Z,100429.38
2019-05-06T01:55:30.197Z,100436.55
2019-05-06T01:56:05.630Z,100431.58
2019-05-06T01:56:41.064Z,100434.13
2019-05-06T01:57:16.508Z,100433.28
2019-05-06T01:57:54.557Z,100437.36
2019-05-06T01:58:30.473Z,100438.38
2019-05-06T01:59:05.934Z,100432.97
2019-05-06T01:59:41.383Z,100434.52
2019-05-06T02:00:17.335Z,100439.39
2019-05-06T02:00:54.468Z,100436.97
2019-05-06T02:01:30.444Z,100431.70
2019-05-06T02:02:06.466Z,100432.67
2019-05-06T02:02:43.937Z,100432.67
2019-05-06T02:03:20.005Z,100435.93
2019-05-06T02:03:55.650Z,100435.58
2019-05-06T02:04:33.577Z,100436.95
2019-05-06T02:05:09.520Z,100439.14
2019-05-06T02:05:45.006Z,100433.36
2019-05-06T02:06:20.439Z,100430.58
2019-05-06T02:06:56.212Z,100430.58
2019-05-06T02:07:31.730Z,100447.83
2019-05-06T02:08:07.197Z,100446.56
2019-05-06T02:08:44.820Z,100441.08
2019-05-06T02:09:20.120Z,100441.08
2019-05-06T02:09:55.704Z,100441.93
2019-05-06T02:10:31.187Z,100451.38
2019-05-06T02:11:06.968Z,100445.00
2019-05-06T02:11:44.199Z,100445.00
2019-05-06T02:12:20.151Z,100448.85
2019-05-06T02:12:56.261Z,100447.50
2019-05-06T02:13:32.180Z,100444.86
2019-05-06T02:14:07.985Z,100450.08
2019-05-06T02:14:43.768Z,100448.42
2019-05-06T02:15:19.776Z,100448.42
2019-05-06T02:15:55.238Z,100450.53
2019-05-06T02:16:31.091Z,100452.27
2019-05-06T02:17:06.872Z,100453.56
2019-05-06T02:17:44.091Z,100452.71
2019-05-06T02:18:20.708Z,100451.88
2019-05-06T02:18:56.203Z,100448.08
2019-05-06T02:19:34.553Z,100454.54
2019-05-06T02:20:10.094Z,100452.30
2019-05-06T02:20:46.226Z,100455.39
2019-05-06T02:21:40.638Z,100451.99
2019-05-06T02:22:41.194Z,100452.52
2019-05-06T02:23:19.679Z,100455.00
2019-05-06T02:23:59.123Z,100455.13
2019-05-06T02:24:56.329Z,100450.09
2019-05-06T02:25:37.843Z,100460.44
2019-05-06T02:26:14.244Z,100455.20
2019-05-06T02:26:49.830Z,100453.12
2019-05-06T02:27:25.347Z,100453.09
2019-05-06T02:28:01.232Z,100449.31
2019-05-06T02:28:39.034Z,100449.31
2019-05-06T02:29:16.847Z,100456.97
2019-05-06T02:29:57.761Z,100455.20
2019-05-06T02:30:49.448Z,100452.25
2019-05-06T02:31:49.280Z,100453.09
2019-05-06T02:32:51.724Z,100451.40
2019-05-06T02:33:35.811Z,100449.24
2019-05-06T02:34:15.479Z,100449.24
2019-05-06T02:34:58.249Z,100458.26
2019-05-06T02:35:50.312Z,100450.62
2019-05-06T02:36:34.240Z,100449.80
2019-05-06T02:37:14.731Z,100459.62
2019-05-06T02:37:49.300Z,100459.16
2019-05-06T02:38:35.617Z,100448.79
2019-05-06T02:39:05.425Z,100448.79
2019-05-06T02:39:43.692Z,100450.78
2019-05-06T02:40:25.296Z,100446.08
2019-05-06T02:41:03.528Z,100452.14
2019-05-06T02:41:39.217Z,100453.91
2019-05-06T02:42:14.675Z,100448.36
2019-05-06T02:42:50.106Z,100455.25
2019-05-06T02:43:25.565Z,100455.25
2019-05-06T02:44:03.632Z,100454.89
2019-05-06T02:44:38.842Z,100454.89
2019-05-06T02:45:14.473Z,100443.33
2019-05-06T02:45:53.076Z,100452.36
2019-05-06T02:46:27.587Z,100452.36
2019-05-06T02:47:14.448Z,100451.07
2019-05-06T02:47:56.166Z,100448.77
2019-05-06T02:48:43.013Z,100454.36
2019-05-06T02:49:25.432Z,100449.35
2019-05-06T02:50:04.910Z,100451.80
2019-05-06T02:50:58.251Z,100448.05
2019-05-06T02:51:33.804Z,100453.24
2019-05-06T02:52:09.249Z,100451.50
2019-05-06T02:52:44.772Z,100452.77
2019-05-06T02:53:23.592Z,100458.78
2019-05-06T02:53:59.313Z,100453.20
2019-05-06T02:54:34.898Z,100450.31
2019-05-06T02:55:12.774Z,100451.63
2019-05-06T02:55:47.510Z,100457.63
2019-05-06T02:56:24.116Z,100459.30
2019-05-06T02:56:59.688Z,100461.89
2019-05-06T02:57:35.353Z,100457.66
2019-05-06T02:58:10.819Z,100465.36
2019-05-06T02:58:46.223Z,100465.36
2019-05-06T02:59:24.018Z,100464.56
2019-05-06T02:59:58.930Z,100465.84
2019-05-06T03:00:34.790Z,100463.60
2019-05-06T03:01:13.396Z,100463.60
2019-05-06T03:01:48.042Z,100461.07
2019-05-06T03:02:38.034Z,100461.98
2019-05-06T03:03:02.876Z,100461.98
2019-05-06T03:03:37.899Z,100467.14
2019-05-06T03:04:13.376Z,100462.45
2019-05-06T03:04:52.596Z,100466.30
2019-05-06T03:05:26.717Z,100465.84
2019-05-06T03:06:03.997Z,100461.61
2019-05-06T03:06:39.401Z,100461.61
2019-05-06T03:07:14.878Z,100458.38
2019-05-06T03:07:57.043Z,100461.80
2019-05-06T03:08:28.892Z,100464.72
2019-05-06T03:09:06.462Z,100464.80
2019-05-06T03:09:44.576Z,100463.89
2019-05-06T03:10:19.502Z,100457.95
2019-05-06T03:10:55.085Z,100466.53
2019-05-06T03:11:33.207Z,100458.39
2019-05-06T03:12:08.462Z,100458.39
2019-05-06T03:12:44.109Z,100460.13
2019-05-06T03:13:19.696Z,100458.44
2019-05-06T03:13:55.307Z,100466.14
2019-05-06T03:14:34.261Z,100461.84
2019-05-06T03:15:08.708Z,100459.27
2019-05-06T03:15:44.184Z,100459.27
2019-05-06T03:16:23.539Z,100456.39
2019-05-06T03:16:57.757Z,100456.39
2019-05-06T03:17:33.631Z,100454.68
2019-05-06T03:18:09.116Z,100456.88
2019-05-06T03:18:44.573Z,100456.41
2019-05-06T03:19:20.010Z,100453.94
2019-05-06T03:19:56.885Z,100456.92
2019-05-06T03:20:57.491Z,100458.17
2019-05-06T03:21:45.205Z,100456.81
2019-05-06T03:22:34.554Z,100452.62
2019-05-06T03:23:08.659Z,100452.62
2019-05-06T03:23:46.928Z,100457.34
2019-05-06T03:24:43.627Z,100456.07
2019-05-06T03:25:27.051Z,100460.78
2019-05-06T03:26:05.765Z,100459.98
2019-05-06T03:26:39.814Z,100456.61
2019-05-06T03:27:15.288Z,100456.28
2019-05-06T03:27:53.229Z,100456.28
2019-05-06T03:28:27.966Z,100461.83
2019-05-06T03:29:03.511Z,100457.63
2019-05-06T03:29:38.948Z,100463.59
2019-05-06T03:30:16.557Z,100448.23
2019-05-06T03:30:56.423Z,100448.23
2019-05-06T03:31:29.608Z,100463.98
2019-05-06T03:32:06.976Z,100463.13
2019-05-06T03:33:20.959Z,100465.23
2019-05-06T03:33:40.189Z,100463.20
2019-05-06T03:34:21.104Z,100463.20
2019-05-06T03:34:58.776Z,100463.63
2019-05-06T03:35:27.341Z,100461.92
2019-05-06T03:36:00.562Z,100466.64
2019-05-06T03:36:32.949Z,100470.03
2019-05-06T03:37:07.190Z,100461.98
2019-05-06T03:37:44.019Z,100468.84
2019-05-06T03:38:22.716Z,100464.56
2019-05-06T03:38:57.283Z,100466.72
2019-05-06T03:39:33.890Z,100466.72
2019-05-06T03:40:10.271Z,100467.58
2019-05-06T03:40:46.114Z,100473.04
2019-05-06T03:41:23.365Z,100473.55
2019-05-06T03:41:59.205Z,100473.98
2019-05-06T03:42:34.721Z,100475.27
2019-05-06T03:43:13.664Z,100471.84
2019-05-06T03:43:47.406Z,100473.14
2019-05-06T03:44:23.954Z,100465.41
2019-05-06T03:45:04.381Z,100464.88
2019-05-06T03:45:59.002Z,100474.34
2019-05-06T03:46:53.982Z,100476.14
2019-05-06T03:47:43.310Z,100471.55
2019-05-06T03:48:24.526Z,100479.28
2019-05-06T03:49:03.668Z,100479.28
2019-05-06T03:49:43.631Z,100475.02
2019-05-06T03:50:19.322Z,100474.19
2019-05-06T03:50:56.011Z,100478.45
2019-05-06T03:51:34.350Z,100479.31
2019-05-06T03:52:09.487Z,100478.02
2019-05-06T03:52:45.367Z,100482.73
2019-05-06T03:53:23.238Z,100472.91
2019-05-06T03:54:03.269Z,100481.45
2019-05-06T03:54:39.290Z,100484.43
2019-05-06T03:55:14.815Z,100483.15
2019-05-06T03:55:53.941Z,100485.30
2019-05-06T03:56:29.539Z,100487.02
2019-05-06T03:57:06.035Z,100487.09
2019-05-06T03:57:42.969Z,100490.11
2019-05-06T03:58:23.610Z,100480.77
2019-05-06T03:58:59.384Z,100480.77
2019-05-06T03:59:36.827Z,100484.98
2019-05-06T04:00:15.972Z,100481.63
2019-05-06T04:00:53.104Z,100494.43
2019-05-06T04:01:28.974Z,100490.16
2019-05-06T04:02:05.430Z,100493.59
2019-05-06T04:02:43.490Z,100492.73
2019-05-06T04:03:18.199Z,100493.53
2019-05-06T04:03:57.152Z,100495.30
2019-05-06T04:04:33.199Z,100487.61
2019-05-06T04:05:08.511Z,100490.61
2019-05-06T04:05:44.870Z,100485.50
2019-05-06T04:06:24.023Z,100491.53
2019-05-06T04:06:58.985Z,100490.25
2019-05-06T04:07:34.799Z,100487.70
2019-05-06T04:08:12.749Z,100492.38
2019-05-06T04:08:52.601Z,100491.56
2019-05-06T04:09:26.849Z,100486.88
2019-05-06T04:10:03.431Z,100489.42
2019-05-06T04:10:39.402Z,100497.09
2019-05-06T04:11:18.352Z,100496.67
2019-05-06T04:11:54.440Z,100493.70
2019-05-06T04:12:33.282Z,100489.44
2019-05-06T04:13:13.493Z,100495.41
2019-05-06T04:13:50.036Z,100497.61
2019-05-06T04:14:27.307Z,100495.50
2019-05-06T04:15:04.388Z,100491.22
2019-05-06T04:16:08.302Z,100489.51
2019-05-06T04:16:53.236Z,100493.34
2019-05-06T04:17:57.185Z,100482.67
2019-05-06T04:18:33.622Z,100485.63
2019-05-06T04:19:24.883Z,100490.72
2019-05-06T04:20:07.735Z,100492.39
2019-05-06T04:20:53.264Z,100488.62
2019-05-06T04:21:35.440Z,100488.97
2019-05-06T04:22:36.302Z,100484.30
2019-05-06T04:23:25.659Z,100488.20
2019-05-06T04:24:22.768Z,100482.22
2019-05-06T04:25:14.057Z,100487.30
2019-05-06T04:25:58.181Z,100489.00
2019-05-06T04:26:46.359Z,100486.05
2019-05-06T04:27:36.999Z,100489.44
2019-05-06T04:28:18.461Z,100486.44
2019-05-06T04:28:55.645Z,100488.13
2019-05-06T04:29:33.092Z,100494.53
2019-05-06T04:30:09.051Z,100494.98
2019-05-06T04:30:44.631Z,100500.59
2019-05-06T04:31:22.707Z,100499.30
2019-05-06T04:31:57.241Z,100495.39
2019-05-06T04:32:34.094Z,100495.41
2019-05-06T04:33:14.112Z,100498.73
2019-05-06T04:34:05.361Z,100503.42
2019-05-06T04:34:24.953Z,100499.52
2019-05-06T04:35:04.084Z,100508.53
2019-05-06T04:35:38.405Z,100505.13
2019-05-06T04:36:14.166Z,100504.21
2019-05-06T04:36:49.600Z,100512.32
2019-05-06T04:37:25.093Z,100503.35
2019-05-06T04:38:03.137Z,100501.66
2019-05-06T04:38:38.770Z,100508.05
2019-05-06T04:39:14.771Z,100505.48
2019-05-06T04:39:53.179Z,100504.60
2019-05-06T04:40:28.400Z,100507.00
2019-05-06T04:41:04.423Z,100505.75
2019-05-06T04:41:43.060Z,100501.95
2019-05-06T04:42:17.560Z,100504.52
2019-05-06T04:42:53.330Z,100502.82
2019-05-06T04:43:29.170Z,100496.43
2019-05-06T04:44:04.805Z,100503.67
2019-05-06T04:44:40.312Z,100498.96
2019-05-06T04:45:17.264Z,100502.75
2019-05-06T04:45:54.189Z,100506.98
2019-05-06T04:46:34.370Z,100499.66
2019-05-06T04:47:08.259Z,100504.34
2019-05-06T04:47:43.786Z,100500.94
2019-05-06T04:48:19.274Z,100509.84
2019-05-06T04:48:57.261Z,100512.41
2019-05-06T04:49:33.296Z,100506.52
2019-05-06T04:50:09.453Z,100512.94
2019-05-06T04:50:44.921Z,100512.49
2019-05-06T04:51:24.616Z,100511.22
2019-05-06T04:51:59.079Z,100513.83
2019-05-06T04:52:34.547Z,100514.27
2019-05-06T04:53:10.450Z,100514.70
2019-05-06T04:53:47.132Z,100518.97
2019-05-06T04:54:26.225Z,100518.05
2019-05-06T04:55:03.133Z,100512.13
2019-05-06T04:55:37.732Z,100515.48
2019-05-06T04:56:14.375Z,100520.53
2019-05-06T04:56:53.452Z,100517.53
2019-05-06T04:57:28.051Z,100519.68
2019-05-06T04:58:05.729Z,100521.79
2019-05-06T04:58:42.897Z,100517.09
2019-05-06T04:59:19.353Z,100519.21
2019-05-06T04:59:55.273Z,100522.98
2019-05-06T05:00:33.135Z,100520.44
2019-05-06T05:01:11.900Z,100526.84
2019-05-06T05:01:45.986Z,100525.08
2019-05-06T05:02:23.043Z,100531.12
2019-05-06T05:02:58.967Z,100532.06
2019-05-06T05:03:35.430Z,100526.52
2019-05-06T05:04:24.556Z,100526.52
2019-05-06T05:04:48.565Z,100529.07
2019-05-06T05:05:24.228Z,100526.03
2019-05-06T05:06:02.980Z,100527.72
2019-05-06T05:06:37.462Z,100527.36
2019-05-06T05:07:12.994Z,100522.22
2019-05-06T05:07:49.032Z,100520.92
2019-05-06T05:08:36.882Z,100533.61
2019-05-06T05:09:17.144Z,100530.61
2019-05-06T05:09:53.834Z,100526.31
2019-05-06T05:10:35.903Z,100520.34
2019-05-06T05:11:35.279Z,100524.55
2019-05-06T05:12:16.301Z,100524.55
2019-05-06T05:13:12.644Z,100525.37
2019-05-06T05:13:56.353Z,100524.96
2019-05-06T05:14:36.940Z,100530.53
2019-05-06T05:15:32.547Z,100523.73
2019-05-06T05:16:14.838Z,100529.30
2019-05-06T05:16:58.571Z,100533.60
2019-05-06T05:17:42.366Z,100532.72
2019-05-06T05:18:25.099Z,100531.45
2019-05-06T05:19:06.518Z,100536.52
2019-05-06T05:19:42.925Z,100538.19
2019-05-06T05:20:18.468Z,100531.89
2019-05-06T05:20:55.330Z,100531.45
2019-05-06T05:21:32.256Z,100530.20
2019-05-06T05:22:08.155Z,100531.56
2019-05-06T05:22:44.835Z,100531.56
2019-05-06T05:23:22.818Z,100533.28
2019-05-06T05:23:58.507Z,100537.12
2019-05-06T05:24:34.359Z,100535.44
2019-05-06T05:25:12.064Z,100533.30
2019-05-06T05:25:47.515Z,100539.69
2019-05-06T05:26:23.437Z,100537.53
2019-05-06T05:26:59.066Z,100540.05
2019-05-06T05:27:34.655Z,100526.84
2019-05-06T05:28:12.966Z,100536.11
2019-05-06T05:28:48.324Z,100541.61
2019-05-06T05:29:23.891Z,100541.19
2019-05-06T05:29:59.440Z,100541.19
2019-05-06T05:30:35.515Z,100547.95
2019-05-06T05:31:12.341Z,100547.95
2019-05-06T05:31:47.859Z,100542.84
2019-05-06T05:32:26.545Z,100547.34
2019-05-06T05:33:02.601Z,100547.34
2019-05-06T05:33:38.190Z,100546.77
2019-05-06T05:34:14.465Z,100550.66
2019-05-06T05:34:52.102Z,100553.65
2019-05-06T05:35:27.910Z,100547.64
2019-05-06T05:36:03.403Z,100559.74
2019-05-06T05:36:39.634Z,100558.31
2019-05-06T05:37:15.892Z,100555.84
2019-05-06T05:37:52.918Z,100551.28
2019-05-06T05:38:29.124Z,100548.38
2019-05-06T05:39:07.178Z,100559.39
2019-05-06T05:39:42.893Z,100559.39
2019-05-06T05:40:18.769Z,100560.16
2019-05-06T05:40:54.555Z,100557.59
2019-05-06T05:41:30.045Z,100557.34
2019-05-06T05:42:17.106Z,100555.78
2019-05-06T05:43:02.883Z,100559.29
2019-05-06T05:43:48.528Z,100558.41
2019-05-06T05:44:29.931Z,100559.95
2019-05-06T05:45:05.793Z,100564.22
2019-05-06T05:45:42.498Z,100558.66
2019-05-06T05:46:18.269Z,100557.80
2019-05-06T05:46:53.739Z,100558.11
2019-05-06T05:47:29.377Z,100565.91
2019-05-06T05:48:12.379Z,100566.82
2019-05-06T05:49:11.927Z,100560.88
2019-05-06T05:50:22.839Z,100560.72
2019-05-06T05:50:58.855Z,100564.75
2019-05-06T05:51:34.346Z,100562.27
2019-05-06T05:52:12.526Z,100569.05
2019-05-06T05:52:47.856Z,100569.98
2019-05-06T05:53:23.639Z,100574.62
2019-05-06T05:54:02.059Z,100566.87
2019-05-06T05:54:37.117Z,100570.97
2019-05-06T05:55:13.360Z,100571.77
2019-05-06T05:55:48.920Z,100575.59
2019-05-06T05:56:24.595Z,100569.66
2019-05-06T05:57:02.386Z,100566.84
2019-05-06T05:57:38.392Z,100573.20
2019-05-06T05:58:13.906Z,100576.86
2019-05-06T05:58:49.683Z,100571.73
2019-05-06T05:59:25.492Z,100573.56
2019-05-06T06:00:03.703Z,100574.06
2019-05-06T06:00:39.695Z,100573.19
2019-05-06T06:01:15.151Z,100571.00
2019-05-06T06:01:52.899Z,100579.93
2019-05-06T06:02:30.640Z,100570.12
2019-05-06T06:03:07.450Z,100569.39
2019-05-06T06:03:42.978Z,100574.16
2019-05-06T06:04:18.963Z,100573.38
2019-05-06T06:04:57.673Z,100581.44
2019-05-06T06:05:32.982Z,100583.13
2019-05-06T06:06:08.936Z,100572.87
2019-05-06T06:06:44.474Z,100537.20
2019-05-06T06:07:20.257Z,100580.08
2019-05-06T06:07:55.718Z,100584.78
2019-05-06T06:08:32.258Z,100584.76
2019-05-06T06:09:08.273Z,100584.70
2019-05-06T06:09:57.884Z,100587.64
2019-05-06T06:11:04.555Z,100582.03
2019-05-06T06:11:46.518Z,100592.08
2019-05-06T06:12:23.052Z,100580.91
2019-05-06T06:12:58.923Z,100590.36
2019-05-06T06:13:34.458Z,100594.72
2019-05-06T06:14:29.376Z,100589.28
2019-05-06T06:15:24.251Z,100594.84
2019-05-06T06:16:27.946Z,100589.78
2019-05-06T06:17:18.442Z,100586.47
2019-05-06T06:18:16.255Z,100586.95
2019-05-06T06:19:03.201Z,100589.49
2019-05-06T06:19:47.935Z,100582.83
2019-05-06T06:20:42.408Z,100580.29
2019-05-06T06:21:32.241Z,100580.31
2019-05-06T06:22:14.791Z,100587.64
2019-05-06T06:22:52.183Z,100580.30
2019-05-06T06:23:32.366Z,100580.47
2019-05-06T06:24:16.135Z,100582.94
2019-05-06T06:24:52.632Z,100580.84
2019-05-06T06:25:28.229Z,100578.33
2019-05-06T06:26:04.180Z,100580.83
2019-05-06T06:26:39.766Z,100586.39
2019-05-06T06:27:15.233Z,100585.01
2019-05-06T06:27:52.091Z,100587.16
2019-05-06T06:28:28.181Z,100585.84
2019-05-06T06:29:03.734Z,100580.29
2019-05-06T06:29:41.706Z,100582.33
2019-05-06T06:30:16.754Z,100585.73
2019-05-06T06:31:04.693Z,100580.05
2019-05-06T06:32:03.146Z,100585.94
2019-05-06T06:32:38.701Z,100586.70
2019-05-06T06:33:14.194Z,100587.73
2019-05-06T06:33:52.964Z,100587.73
2019-05-06T06:34:33.775Z,100587.25
2019-05-06T06:35:28.359Z,100587.25
2019-05-06T06:36:12.301Z,100585.22
2019-05-06T06:37:10.022Z,100587.23
2019-05-06T06:37:59.682Z,100585.22
2019-05-06T06:38:47.953Z,100585.22
2019-05-06T06:39:26.885Z,100579.13
2019-05-06T06:40:02.785Z,100579.13
2019-05-06T06:40:38.482Z,100571.06
2019-05-06T06:41:14.333Z,100584.23
2019-05-06T06:41:51.934Z,100576.08
2019-05-06T06:42:27.521Z,100579.37
2019-05-06T06:43:06.235Z,100579.37
2019-05-06T06:43:42.146Z,100571.66
2019-05-06T06:44:22.126Z,100578.06
2019-05-06T06:44:57.662Z,100580.08
2019-05-06T06:45:33.853Z,100581.81
2019-05-06T06:46:09.590Z,100583.14
2019-05-06T06:46:45.436Z,100581.95
2019-05-06T06:47:22.453Z,100581.02
2019-05-06T06:47:58.326Z,100587.39
2019-05-06T06:48:34.286Z,100576.05
2019-05-06T06:49:12.724Z,100579.97
2019-05-06T06:49:48.423Z,100586.04
2019-05-06T06:50:23.901Z,100580.86
2019-05-06T06:50:59.773Z,100578.38
2019-05-06T06:51:35.542Z,100583.98
2019-05-06T06:52:14.609Z,100580.09
2019-05-06T06:52:48.706Z,100579.84
2019-05-06T06:53:24.151Z,100579.84
2019-05-06T06:54:01.973Z,100579.14
2019-05-06T06:54:37.870Z,100582.19
2019-05-06T06:55:13.582Z,100581.00
2019-05-06T06:55:49.043Z,100575.55
2019-05-06T06:56:33.911Z,100581.95
2019-05-06T06:57:31.289Z,100575.97
2019-05-06T06:58:24.455Z,100577.28
2019-05-06T06:59:15.017Z,100578.00
2019-05-06T07:00:03.880Z,100575.32
2019-05-06T07:00:56.148Z,100575.32
2019-05-06T07:01:37.787Z,100572.47
2019-05-06T07:02:23.548Z,100583.59
2019-05-06T07:03:03.126Z,100571.47
2019-05-06T07:04:10.465Z,100571.92
2019-05-06T07:04:47.816Z,100580.41
2019-05-06T07:05:54.701Z,100580.41
2019-05-06T07:06:42.915Z,100578.19
2019-05-06T07:07:18.734Z,100578.06
2019-05-06T07:07:54.503Z,100576.59
2019-05-06T07:08:34.863Z,100582.16
2019-05-06T07:09:08.073Z,100580.85
2019-05-06T07:09:44.001Z,100585.33
2019-05-06T07:10:37.043Z,100572.87
2019-05-06T07:11:13.123Z,100582.36
2019-05-06T07:11:49.007Z,100580.94
2019-05-06T07:12:26.553Z,100580.38
2019-05-06T07:13:03.033Z,100574.78
2019-05-06T07:13:42.757Z,100574.78
2019-05-06T07:14:18.753Z,100581.43
2019-05-06T07:15:02.236Z,100584.52
2019-05-06T07:15:38.384Z,100582.44
2019-05-06T07:16:14.362Z,100587.17
2019-05-06T07:16:50.151Z,100584.78
2019-05-06T07:17:25.618Z,100588.52
2019-05-06T07:18:02.279Z,100586.34
2019-05-06T07:18:38.346Z,100573.56
2019-05-06T07:19:15.813Z,100573.56
2019-05-06T07:19:55.560Z,100579.03
2019-05-06T07:20:34.830Z,100577.77
2019-05-06T07:21:22.533Z,100577.77
2019-05-06T07:21:58.813Z,100588.53